Irene, SD (57037)

3:50 AM CST on January 16, 2018 (GMT -0600)
Turkey Ridge | | Change Station
Active Advisory: Wind Chill Advisory

Elev 1644 ft 43.26 °N, 97.36 °W | Updated 2 minutes ago

Overcast
Overcast
-6.5 °F
Feels Like -18 °F
N
5.0
Wind Variable Wind from WNW
Gusts 5.0 mph

Today
High -- | Low -- °F
--% Chance of Precip.
Yesterday
High -- | Low -- °F
Precip. -- in
Pressure 30.92 in
Visibility 7.0 miles
Clouds Overcast 1800 ft
Windchill -18 °F
Dew Point -11 °F
Humidity 81%
Rainfall 0.00 in
Snow Depth Not available.
7:56 AM 5:20 PM
Waning Crescent, 0% visible
METAR KYKN 160856Z AUTO 32017G20KT 7SM OVC018 M19/M23 A3076 RMK AO2 SLP470 60000 T11941228 53005 FZRANO
Pressure 30.92 in
Visibility 7.0 miles
Clouds Overcast 1800 ft
Windchill -18 °F
Dew Point -11 °F
Humidity 81%
Rainfall 0.00 in
Snow Depth Not available.
7:56 AM 5:20 PM
Waning Crescent, 0% visible
METAR KYKN 160856Z AUTO 32017G20KT 7SM OVC018 M19/M23 A3076 RMK AO2 SLP470 60000 T11941228 53005 FZRANO

Get Your Daily Forecast Email!

Thanks for signing up!

Be on the lookout for a verification email in your inbox.

You'll start receiving severe weather alerts in your inbox..

×

10-Day Weather Forecast

Almanac

Astronomy

Jan. 16, 2018 Rise Set
Actual Time
Civil Twilight
Nautical Twilight
Astronomical Twilight
Moon
Length of Visible Light
Length of Day
Tomorrow will be .
, % of the Moon is Illuminated

Today's Extremes

State Highs State Lows

Community

WunderPhotos

Category 6

Welcome to Category 6. This is the collective home for Weather Underground's featured writeups by Dr. Jeff Masters (right), Bob Henson (left), Chris Burt, and other regular contributors.

Nearby

Air Quality

  Air Quality AQ Index Pollutant
Not available.

Snow Depth

Station Depth Elevation

Earthquake Activity

City Distance Mag. Time & Date
Minimum magnitude displayed is 2.5.

Coastal Water Temperatures

Place Temperature

Stations

Nearby Weather Stations

Station Location Temp. Windchill Dew Point Humidity Wind Precip. Elev Updated Type
                   

Watches & Warnings

Wind Chill Advisory
Issued: 9:28 PM CST Jan. 15, 2018 – National Weather Service

... Wind Chill Advisory remains in effect until noon CST Tuesday...

* what... very cold wind chills expected. The cold wind chills
will cause frostbite in as little as 30 minutes to exposed
skin. Expect wind chills to range from 20 below zero to 30
below zero.

* Where... portions of central, south central and southeast South
Dakota, northeast Nebraska and northwest Iowa.

* When... until noon CST Tuesday.

* Additional details... temperatures and wind chills will improve
quickly after sunrise Tuesday morning.

Precautionary/preparedness actions...

A Wind Chill Advisory means that cold air and the wind will
combine to create low wind chills. Frost bite and hypothermia can
occur if precautions are not taken. Make sure you wear a hat and
gloves.